createdAt,value
2022-12-23T00:00:02.791Z,99376.20
2022-12-23T00:05:38.635Z,99384.31
2022-12-23T00:10:42.808Z,99381.98
2022-12-23T00:15:46.493Z,99383.55
2022-12-23T00:20:50.433Z,99383.60
2022-12-23T00:25:54.458Z,99383.73
2022-12-23T00:31:07.028Z,99378.48
2022-12-23T00:36:28.013Z,99379.70
2022-12-23T00:41:51.698Z,99378.05
2022-12-23T00:46:55.515Z,99387.45
2022-12-23T00:52:00.148Z,99386.77
2022-12-23T00:57:04.242Z,99384.53
2022-12-23T01:02:28.687Z,99379.33
2022-12-23T01:07:32.795Z,99375.08
2022-12-23T01:12:36.439Z,99370.88
2022-12-23T01:17:40.267Z,99364.05
2022-12-23T01:22:44.168Z,99362.85
2022-12-23T01:27:47.888Z,99349.78
2022-12-23T01:32:51.753Z,99341.79
2022-12-23T01:37:55.485Z,99335.48
2022-12-23T01:43:01.136Z,99321.30
2022-12-23T01:48:12.240Z,99315.75
2022-12-23T01:53:19.920Z,99306.89
2022-12-23T01:58:31.658Z,99312.39
2022-12-23T02:03:44.698Z,99318.16
2022-12-23T02:09:07.274Z,99315.83
2022-12-23T02:14:58.735Z,99317.35
2022-12-23T02:20:23.576Z,99319.80
2022-12-23T02:25:39.732Z,99313.83
2022-12-23T02:31:26.669Z,99304.56
2022-12-23T02:36:56.175Z,99306.27
2022-12-23T02:42:07.118Z,99303.49
2022-12-23T02:47:13.734Z,99302.68
2022-12-23T02:52:20.848Z,99304.23
2022-12-23T02:57:27.834Z,99298.09
2022-12-23T03:02:38.063Z,99297.55
2022-12-23T03:07:43.373Z,99305.83
2022-12-23T03:13:25.661Z,99304.27
2022-12-23T03:18:42.821Z,99304.45
2022-12-23T03:24:18.612Z,99306.48
2022-12-23T03:29:53.002Z,99304.23
2022-12-23T03:34:57.812Z,99305.87
2022-12-23T03:40:05.628Z,99303.07
2022-12-23T03:45:38.671Z,99300.27
2022-12-23T03:50:38.526Z,99294.65
2022-12-23T03:55:46.882Z,99290.73
2022-12-23T04:01:10.832Z,99288.14
2022-12-23T04:06:16.802Z,99291.16
2022-12-23T04:11:20.784Z,99284.16
2022-12-23T04:16:24.767Z,99278.77
2022-12-23T04:21:28.419Z,99280.87
2022-12-23T04:26:32.186Z,99281.36
2022-12-23T04:31:35.884Z,99275.68
2022-12-23T04:36:39.695Z,99269.39
2022-12-23T04:41:43.434Z,99265.16
2022-12-23T04:46:47.398Z,99261.86
2022-12-23T04:51:51.241Z,99243.85
2022-12-23T04:56:54.932Z,99237.84
2022-12-23T05:01:58.981Z,99234.83
2022-12-23T05:07:02.974Z,99233.27
2022-12-23T05:12:06.846Z,99232.12
2022-12-23T05:17:10.563Z,99230.18
2022-12-23T05:22:14.263Z,99228.33
2022-12-23T05:27:18.013Z,99229.52
2022-12-23T05:32:21.758Z,99220.09
2022-12-23T05:37:25.482Z,99220.06
2022-12-23T05:42:29.210Z,99218.37
2022-12-23T05:47:33.092Z,99212.37
2022-12-23T05:52:36.865Z,99217.58
2022-12-23T05:57:40.534Z,99219.69
2022-12-23T06:02:49.952Z,99218.83
2022-12-23T06:07:57.715Z,99216.42
2022-12-23T06:13:01.432Z,99217.11
2022-12-23T06:18:05.587Z,99230.16
2022-12-23T06:23:09.267Z,99235.97
2022-12-23T06:28:13.055Z,99236.27
2022-12-23T06:33:16.816Z,99236.27
2022-12-23T06:38:20.673Z,99229.81
2022-12-23T06:43:25.033Z,99227.73
2022-12-23T06:48:28.827Z,99231.40
2022-12-23T06:53:32.536Z,99236.52
2022-12-23T06:58:36.364Z,99232.66
2022-12-23T07:03:40.176Z,99230.20
2022-12-23T07:08:43.994Z,99227.55
2022-12-23T07:13:47.775Z,99227.99
2022-12-23T07:18:51.579Z,99233.44
2022-12-23T07:23:55.196Z,99232.51
2022-12-23T07:28:59.043Z,99232.38
2022-12-23T07:34:02.794Z,99229.86
2022-12-23T07:39:06.664Z,99227.16
2022-12-23T07:44:10.570Z,99221.48
2022-12-23T07:49:14.255Z,99220.02
2022-12-23T07:54:18.305Z,99222.27
2022-12-23T07:59:22.140Z,99233.04
2022-12-23T08:04:26.050Z,99229.92
2022-12-23T08:09:29.814Z,99225.87
2022-12-23T08:14:33.583Z,99224.96
2022-12-23T08:19:37.253Z,99221.52
2022-12-23T08:24:41.004Z,99214.48
2022-12-23T08:29:44.760Z,99216.52
2022-12-23T08:34:48.400Z,99222.84
2022-12-23T08:39:52.075Z,99224.54
2022-12-23T08:44:57.108Z,99214.60
2022-12-23T08:50:01.158Z,99208.65
2022-12-23T08:55:05.029Z,99199.85
2022-12-23T09:00:09.464Z,99197.42
2022-12-23T09:05:13.182Z,99192.84
2022-12-23T09:10:17.075Z,99195.52
2022-12-23T09:15:20.876Z,99197.53
2022-12-23T09:20:24.642Z,99194.23
2022-12-23T09:25:28.341Z,99191.27
2022-12-23T09:30:32.287Z,99189.11
2022-12-23T09:35:36.123Z,99189.01
2022-12-23T09:40:41.512Z,99190.30
2022-12-23T09:46:14.276Z,99197.92
2022-12-23T09:51:20.613Z,99198.20
2022-12-23T09:57:01.404Z,99192.99
2022-12-23T10:02:52.070Z,99197.86
2022-12-23T10:08:06.231Z,99194.58
2022-12-23T10:13:25.663Z,99193.45
2022-12-23T10:18:54.110Z,99201.02
2022-12-23T10:24:00.401Z,99195.75
2022-12-23T10:29:20.877Z,99191.89
2022-12-23T10:34:41.543Z,99192.83
2022-12-23T10:41:01.229Z,99190.15
2022-12-23T10:46:47.181Z,99186.54
2022-12-23T10:51:52.124Z,99190.56
2022-12-23T10:56:56.276Z,99190.91
2022-12-23T11:02:13.606Z,99195.68
2022-12-23T11:07:45.942Z,99194.92
2022-12-23T11:12:52.982Z,99190.37
2022-12-23T11:18:06.358Z,99195.88
2022-12-23T11:23:28.592Z,99201.38
2022-12-23T11:28:38.192Z,99200.77
2022-12-23T11:33:55.057Z,99200.16
2022-12-23T11:39:10.853Z,99202.55
2022-12-23T11:44:27.048Z,99199.98
2022-12-23T11:49:34.224Z,99197.39
2022-12-23T11:54:38.263Z,99192.91
2022-12-23T11:59:50.383Z,99192.67
2022-12-23T12:05:09.434Z,99182.75
2022-12-23T12:10:34.181Z,99186.81
2022-12-23T12:15:45.167Z,99191.89
2022-12-23T12:20:56.398Z,99191.39
2022-12-23T12:26:04.371Z,99192.19
2022-12-23T12:31:32.803Z,99188.64
2022-12-23T12:36:55.676Z,99190.33
2022-12-23T12:42:13.158Z,99192.52
2022-12-23T12:52:44.896Z,99213.08
2022-12-23T12:57:48.748Z,99220.78
2022-12-23T13:03:28.325Z,99228.33
2022-12-23T13:08:41.226Z,99228.61
2022-12-23T13:13:47.451Z,99238.48
2022-12-23T13:18:52.030Z,99247.97
2022-12-23T13:24:10.759Z,99250.79
2022-12-23T13:29:27.016Z,99257.52
2022-12-23T13:34:51.446Z,99261.28
2022-12-23T13:40:02.434Z,99267.05
2022-12-23T13:45:14.222Z,99267.41
2022-12-23T13:50:30.128Z,99269.05
2022-12-23T13:56:01.979Z,99261.64
2022-12-23T14:01:08.919Z,99262.70
2022-12-23T14:06:43.776Z,99262.20
2022-12-23T14:11:47.564Z,99253.66
2022-12-23T14:16:55.050Z,99248.21
2022-12-23T14:22:22.993Z,99248.98
2022-12-23T14:27:29.686Z,99250.08
2022-12-23T14:32:49.151Z,99254.91
2022-12-23T14:38:31.953Z,99256.40
2022-12-23T14:43:44.902Z,99258.91
2022-12-23T14:48:48.750Z,99265.75
2022-12-23T14:53:58.341Z,99263.02
2022-12-23T14:59:14.143Z,99266.27
2022-12-23T15:04:29.669Z,99267.69
2022-12-23T15:09:39.386Z,99269.50
2022-12-23T15:14:48.275Z,99273.19
2022-12-23T15:19:52.395Z,99272.21
2022-12-23T15:24:56.760Z,99274.55
2022-12-23T15:30:00.742Z,99266.50
2022-12-23T15:35:06.607Z,99271.05
2022-12-23T15:40:34.591Z,99264.27
2022-12-23T15:45:40.667Z,99267.73
2022-12-23T15:50:44.593Z,99272.45
2022-12-23T15:55:49.504Z,99268.40
2022-12-23T16:00:58.638Z,99261.45
2022-12-23T16:06:27.997Z,99267.41
2022-12-23T16:11:39.815Z,99267.40
2022-12-23T16:16:44.220Z,99267.67
2022-12-23T16:21:49.903Z,99272.48
2022-12-23T16:26:54.898Z,99274.81
2022-12-23T16:32:01.792Z,99270.73
2022-12-23T16:37:05.826Z,99274.37
2022-12-23T16:42:09.717Z,99279.19
2022-12-23T16:47:17.673Z,99280.38
2022-12-23T16:52:25.461Z,99282.27
2022-12-23T16:57:29.161Z,99287.52
2022-12-23T17:02:35.025Z,99289.76
2022-12-23T17:07:45.045Z,99285.98
2022-12-23T17:12:50.403Z,99294.31
2022-12-23T17:17:54.668Z,99291.11
2022-12-23T17:23:00.164Z,99291.50
2022-12-23T17:28:10.555Z,99289.44
2022-12-23T17:33:18.650Z,99294.39
2022-12-23T17:38:23.161Z,99295.55
2022-12-23T17:43:27.172Z,99296.40
2022-12-23T17:48:32.054Z,99297.52
2022-12-23T17:53:36.494Z,99291.20
2022-12-23T17:58:41.205Z,99289.55
2022-12-23T18:03:45.114Z,99294.79
2022-12-23T18:08:49.605Z,99292.16
2022-12-23T18:13:54.862Z,99285.40
2022-12-23T18:18:58.519Z,99282.65
2022-12-23T18:24:02.693Z,99281.77
2022-12-23T18:29:06.485Z,99277.70
2022-12-23T18:34:17.611Z,99290.65
2022-12-23T18:39:22.826Z,99296.17
2022-12-23T18:44:26.671Z,99290.48
2022-12-23T18:49:30.484Z,99288.77
2022-12-23T18:54:34.898Z,99274.16
2022-12-23T18:59:41.085Z,99273.73
2022-12-23T19:04:45.975Z,99269.52
2022-12-23T19:09:49.981Z,99264.68
2022-12-23T19:14:53.805Z,99257.63
2022-12-23T19:19:57.839Z,99245.74
2022-12-23T19:25:06.562Z,99235.73
2022-12-23T19:30:14.515Z,99231.22
2022-12-23T19:35:18.388Z,99239.92
2022-12-23T19:40:22.797Z,99234.70
2022-12-23T19:45:26.716Z,99221.42
2022-12-23T19:50:30.723Z,99217.56
2022-12-23T19:55:34.750Z,99218.94
2022-12-23T20:00:39.018Z,99212.66
2022-12-23T20:05:50.476Z,99215.90
2022-12-23T20:11:26.224Z,99212.58
2022-12-23T20:16:30.924Z,99207.98
2022-12-23T20:21:39.046Z,99211.13
2022-12-23T20:26:44.808Z,99208.44
2022-12-23T20:31:50.458Z,99213.37
2022-12-23T20:36:54.798Z,99208.46
2022-12-23T20:41:58.931Z,99209.61
2022-12-23T20:47:03.337Z,99201.30
2022-12-23T20:52:07.212Z,99194.96
2022-12-23T20:57:11.176Z,99200.50
2022-12-23T21:02:16.573Z,99201.88
2022-12-23T21:07:20.463Z,99198.70
2022-12-23T21:12:24.414Z,99202.83
2022-12-23T21:17:29.984Z,99199.14
2022-12-23T21:22:33.814Z,99198.52
2022-12-23T21:27:37.679Z,99200.64
2022-12-23T21:32:41.474Z,99197.95
2022-12-23T21:37:45.306Z,99196.49
2022-12-23T21:42:49.147Z,99188.90
2022-12-23T21:47:52.972Z,99187.47
2022-12-23T21:52:56.806Z,99181.84
2022-12-23T21:58:00.565Z,99168.38
2022-12-23T22:03:04.369Z,99157.58
2022-12-23T22:08:08.141Z,99155.73
2022-12-23T22:13:12.507Z,99151.09
2022-12-23T22:18:17.059Z,99140.92
2022-12-23T22:23:20.851Z,99136.11
2022-12-23T22:28:24.864Z,99133.50
2022-12-23T22:33:29.021Z,99129.59
2022-12-23T22:38:32.682Z,99120.86
2022-12-23T22:43:36.840Z,99114.31
2022-12-23T22:48:40.881Z,99118.46
2022-12-23T22:53:45.227Z,99114.79
2022-12-23T22:58:49.554Z,99099.29
2022-12-23T23:03:57.664Z,99092.08
2022-12-23T23:09:02.180Z,99083.16
2022-12-23T23:14:05.933Z,99079.39
2022-12-23T23:19:10.881Z,99083.98
2022-12-23T23:24:14.741Z,99064.30
2022-12-23T23:29:18.785Z,99051.64
2022-12-23T23:34:22.473Z,99045.45
2022-12-23T23:39:26.323Z,99043.71
2022-12-23T23:44:30.198Z,99054.89
2022-12-23T23:49:33.909Z,99061.27
2022-12-23T23:54:38.253Z,99063.02
2022-12-23T23:59:42.001Z,99073.59
